Time;durP1;ratioP1;P1;durP2;ratioP2;P2;SDS_P1;SDS_P2;PMS_P1;PMS_P2;Temp;Humidity;BMP_temperature;BMP_pressure;BME280_temperature;BME280_humidity;BME280_pressure;Samples;Min_cycle;Max_cycle;Signal;HPM_P1;HPM_P2
2022/08/31 00:04:57;;;;;;;;;;;;;;;22.01;44.38;99906.41;12221839;19;19930;-80
2022/08/31 00:09:00;;;;;;;;;;;;;;;21.99;44.38;99895.53;12202474;19;19911;-81
2022/08/31 00:13:02;;;;;;;;;;;;;;;21.94;45.04;99898.47;12220466;19;19915;-79
2022/08/31 00:17:04;;;;;;;;;;;;;;;21.97;45.23;99903.44;12216748;19;19915;-78
2022/08/31 00:21:05;;;;;;;;;;;;;;;22.00;44.64;99894.34;12197189;19;20613;-79
2022/08/31 00:25:07;;;;;;;;;;;;;;;22.03;44.71;99901.31;12218761;19;19986;-80
2022/08/31 00:29:10;;;;;;;;;;;;;;;22.07;44.61;99897.53;12224343;19;19975;-80
2022/08/31 00:33:12;;;;;;;;;;;;;;;22.11;44.69;99896.88;12200535;19;19928;-82
2022/08/31 00:37:14;;;;;;;;;;;;;;;22.13;44.44;99906.66;12222798;19;19918;-81
2022/08/31 00:41:17;;;;;;;;;;;;;;;22.11;44.53;99908.94;12220650;19;19915;-82
2022/08/31 00:45:20;;;;;;;;;;;;;;;22.13;44.92;99900.19;12200587;19;19923;-82
2022/08/31 00:49:24;;;;;;;;;;;;;;;22.13;45.04;99901.03;12221382;19;19954;-81
2022/08/31 00:53:25;;;;;;;;;;;;;;;22.15;44.57;99903.50;12221327;19;19911;-81
2022/08/31 00:57:30;;;;;;;;;;;;;;;22.12;44.88;99904.97;12197413;19;19912;-80
2022/08/31 01:01:34;;;;;;;;;;;;;;;22.11;44.72;99902.50;12222003;19;19931;-81
2022/08/31 01:05:37;;;;;;;;;;;;;;;22.04;45.33;99897.34;12220480;19;19907;-81
2022/08/31 01:09:41;;;;;;;;;;;;;;;22.01;45.52;99907.25;12197456;19;19907;-82
2022/08/31 01:13:56;;;;;;;;;;;;;;;21.97;45.39;99913.81;12218211;19;19978;-80
2022/08/31 01:18:00;;;;;;;;;;;;;;;21.91;45.16;99909.50;12198052;19;19927;-80
2022/08/31 01:22:11;;;;;;;;;;;;;;;21.78;45.87;99912.09;12220479;19;20608;-82
2022/08/31 01:26:17;;;;;;;;;;;;;;;21.72;45.67;99918.19;12212157;19;19979;-82
2022/08/31 01:30:22;;;;;;;;;;;;;;;21.64;46.52;99921.75;12194300;19;19952;-82
2022/08/31 01:34:23;;;;;;;;;;;;;;;21.65;46.04;99929.00;12214954;19;20266;-81
2022/08/31 01:38:26;;;;;;;;;;;;;;;21.54;46.68;99950.91;12215607;19;19919;-81
2022/08/31 01:42:28;;;;;;;;;;;;;;;21.47;46.93;99975.72;12190068;19;20016;-81
2022/08/31 01:46:34;;;;;;;;;;;;;;;21.39;47.92;99947.31;12215447;19;20333;-81
2022/08/31 01:50:36;;;;;;;;;;;;;;;21.28;47.86;99943.09;12216911;19;19921;-80
2022/08/31 01:54:38;;;;;;;;;;;;;;;21.30;47.19;99948.38;12194444;19;19932;-79
2022/08/31 01:58:41;;;;;;;;;;;;;;;21.24;48.37;99947.69;12218343;19;19907;-80
2022/08/31 02:03:07;;;;;;;;;;;;;;;21.20;48.24;99935.44;12195792;19;20582;-81
2022/08/31 02:07:10;;;;;;;;;;;;;;;21.07;48.97;99928.75;12217085;19;19968;-79
2022/08/31 02:11:11;;;;;;;;;;;;;;;21.03;48.58;99936.13;12214408;19;19939;-80
2022/08/31 02:15:14;;;;;;;;;;;;;;;21.00;48.54;99933.97;12190403;19;19915;-81
2022/08/31 02:19:16;;;;;;;;;;;;;;;20.93;48.42;99928.78;12214818;19;19915;-81
2022/08/31 02:23:18;;;;;;;;;;;;;;;20.89;49.73;99949.34;12212871;19;19915;-80
2022/08/31 02:27:19;;;;;;;;;;;;;;;20.87;49.17;99935.66;12189903;19;20002;-81
2022/08/31 02:31:21;;;;;;;;;;;;;;;20.83;49.22;99937.44;12213025;19;20011;-80
2022/08/31 02:35:29;;;;;;;;;;;;;;;20.79;49.16;99941.16;12211321;19;19925;-81
2022/08/31 02:39:30;;;;;;;;;;;;;;;20.79;49.14;99943.97;12194294;19;20452;-79
2022/08/31 02:43:32;;;;;;;;;;;;;;;20.73;49.70;99942.44;12220765;19;19955;-79
2022/08/31 02:47:34;;;;;;;;;;;;;;;20.68;49.77;99951.78;12238743;19;19910;-79
2022/08/31 02:51:51;;;;;;;;;;;;;;;20.68;49.85;99951.78;12221895;19;19911;-82
2022/08/31 02:55:55;;;;;;;;;;;;;;;20.66;50.08;99948.47;12217970;19;20385;-80
2022/08/31 02:59:56;;;;;;;;;;;;;;;20.62;50.21;99948.25;12204185;19;20354;-79
2022/08/31 03:04:04;;;;;;;;;;;;;;;20.60;50.86;99946.91;12217293;19;19931;-79
2022/08/31 03:08:05;;;;;;;;;;;;;;;20.55;50.93;99945.03;12220749;19;19918;-78
2022/08/31 03:12:07;;;;;;;;;;;;;;;20.54;51.45;99939.78;12201210;19;20283;-81
2022/08/31 03:16:11;;;;;;;;;;;;;;;20.54;51.54;99945.38;12226251;19;19915;-81
2022/08/31 03:20:17;;;;;;;;;;;;;;;20.54;51.00;99946.19;12225248;19;20252;-82
2022/08/31 03:24:20;;;;;;;;;;;;;;;20.53;51.76;99946.53;12198384;19;20248;-81
2022/08/31 03:28:22;;;;;;;;;;;;;;;20.51;51.89;99937.56;12225572;19;20324;-83
2022/08/31 03:32:44;;;;;;;;;;;;;;;20.48;51.50;99948.25;12221133;19;19931;-78
2022/08/31 03:36:46;;;;;;;;;;;;;;;20.46;51.64;99941.28;12197957;19;19914;-79
2022/08/31 03:40:49;;;;;;;;;;;;;;;20.43;51.83;99939.94;12221972;19;19968;-80
2022/08/31 03:44:51;;;;;;;;;;;;;;;20.39;52.56;99952.09;12223162;19;20329;-79
2022/08/31 03:49:00;;;;;;;;;;;;;;;20.38;52.52;99950.44;12199938;19;19924;-80
2022/08/31 03:53:04;;;;;;;;;;;;;;;20.34;52.88;99953.00;12218741;19;19962;-79
2022/08/31 03:57:06;;;;;;;;;;;;;;;20.33;53.06;99954.16;12193085;19;19926;-79
2022/08/31 04:01:09;;;;;;;;;;;;;;;20.29;54.18;99963.50;12219575;19;19915;-79
2022/08/31 04:05:50;;;;;;;;;;;;;;;20.26;53.96;99973.34;12215795;19;19976;-79
2022/08/31 04:10:12;;;;;;;;;;;;;;;20.27;53.91;99987.03;12196398;19;19915;-79
2022/08/31 04:14:32;;;;;;;;;;;;;;;20.23;53.89;99982.38;12220459;19;19917;-79
2022/08/31 04:18:54;;;;;;;;;;;;;;;20.23;54.16;99988.78;12197438;19;19919;-79
2022/08/31 04:22:56;;;;;;;;;;;;;;;20.20;54.60;99986.63;12219049;19;20317;-79
2022/08/31 04:27:08;;;;;;;;;;;;;;;20.20;54.94;99991.38;12198014;19;20337;-79
2022/08/31 04:31:10;;;;;;;;;;;;;;;20.21;54.78;99990.22;12221003;19;19918;-79
2022/08/31 04:35:14;;;;;;;;;;;;;;;20.19;54.92;100000.91;12240761;19;19956;-80
2022/08/31 04:39:17;;;;;;;;;;;;;;;20.18;54.98;99996.44;12227940;19;20003;-82
2022/08/31 04:43:19;;;;;;;;;;;;;;;20.18;55.22;100000.06;12244490;19;19911;-79
2022/08/31 04:47:24;;;;;;;;;;;;;;;20.17;55.16;99998.41;12235380;19;19919;-79
2022/08/31 04:51:28;;;;;;;;;;;;;;;20.18;55.28;100000.06;12195875;19;19928;-80
2022/08/31 04:55:30;;;;;;;;;;;;;;;20.20;55.67;100008.16;12215119;19;19936;-80
2022/08/31 04:59:32;;;;;;;;;;;;;;;20.19;56.16;100017.69;12217777;19;20141;-80
2022/08/31 05:03:55;;;;;;;;;;;;;;;20.19;55.83;100023.28;12190631;19;19907;-79
2022/08/31 05:07:57;;;;;;;;;;;;;;;20.17;55.95;100037.59;12217106;19;19914;-78
2022/08/31 05:11:58;;;;;;;;;;;;;;;20.19;56.16;100031.66;12190571;19;19915;-79
2022/08/31 05:16:03;;;;;;;;;;;;;;;20.11;56.97;100022.03;12212379;19;19907;-81
2022/08/31 05:20:05;;;;;;;;;;;;;;;20.10;56.79;100025.13;12214760;19;19927;-78
2022/08/31 05:24:17;;;;;;;;;;;;;;;20.04;56.98;100025.22;12189879;19;20341;-79
2022/08/31 05:28:22;;;;;;;;;;;;;;;19.93;57.71;100028.50;12211193;19;19918;-78
2022/08/31 05:32:24;;;;;;;;;;;;;;;19.88;57.34;100026.66;12208981;19;19915;-80
2022/08/31 05:36:27;;;;;;;;;;;;;;;19.80;58.09;100028.16;12187317;19;20027;-78
2022/08/31 05:40:29;;;;;;;;;;;;;;;19.79;57.83;100031.28;12212041;19;19935;-77
2022/08/31 05:44:32;;;;;;;;;;;;;;;19.75;58.41;100033.00;12208094;19;19915;-78
2022/08/31 05:48:35;;;;;;;;;;;;;;;19.79;57.99;100046.09;12185922;19;19911;-78
2022/08/31 05:52:38;;;;;;;;;;;;;;;19.78;58.86;100043.59;12211131;19;19931;-77
2022/08/31 05:56:40;;;;;;;;;;;;;;;19.75;59.67;100049.78;12203709;19;20278;-78
2022/08/31 06:00:43;;;;;;;;;;;;;;;19.67;59.68;100061.69;12184642;19;19923;-80
2022/08/31 06:05:10;;;;;;;;;;;;;;;19.53;61.98;100061.59;12207458;19;19935;-77
2022/08/31 06:09:12;;;;;;;;;;;;;;;19.33;62.93;100055.19;12189150;19;19943;-79
2022/08/31 06:13:16;;;;;;;;;;;;;;;19.22;63.83;100066.81;12211805;19;19915;-80
2022/08/31 06:17:18;;;;;;;;;;;;;;;19.16;65.23;100071.63;12211393;19;19915;-78
2022/08/31 06:21:22;;;;;;;;;;;;;;;19.09;67.17;100079.53;12191787;19;19915;-77
2022/08/31 06:25:26;;;;;;;;;;;;;;;18.98;67.34;100084.44;12208133;19;19939;-78
2022/08/31 06:29:32;;;;;;;;;;;;;;;18.88;71.48;100088.19;12212544;19;19918;-77
2022/08/31 06:33:34;;;;;;;;;;;;;;;18.72;73.75;100095.06;12182046;19;19914;-78
2022/08/31 06:37:49;;;;;;;;;;;;;;;18.59;75.55;100096.63;12201609;19;20387;-76
2022/08/31 06:42:09;;;;;;;;;;;;;;;18.52;75.59;100090.53;12186091;19;19931;-78
2022/08/31 06:46:33;;;;;;;;;;;;;;;18.44;76.87;100093.97;12206452;19;20683;-78
2022/08/31 06:50:43;;;;;;;;;;;;;;;18.39;77.24;100100.44;12207090;19;19932;-81
2022/08/31 06:54:44;;;;;;;;;;;;;;;18.29;78.71;100103.31;12186450;19;19915;-80
2022/08/31 06:59:05;;;;;;;;;;;;;;;18.19;77.67;100112.63;12214107;19;19918;-81
2022/08/31 07:03:31;;;;;;;;;;;;;;;18.11;81.55;100107.69;12187398;19;19919;-80
2022/08/31 07:07:34;;;;;;;;;;;;;;;18.08;81.26;100113.84;12210607;19;19911;-82
2022/08/31 07:11:38;;;;;;;;;;;;;;;18.04;82.88;100123.94;12194442;19;19915;-81
2022/08/31 07:15:45;;;;;;;;;;;;;;;18.04;84.83;100126.72;12190862;19;20364;-83
2022/08/31 07:19:46;;;;;;;;;;;;;;;18.07;84.25;100137.28;12213250;19;19962;-81
2022/08/31 07:23:49;;;;;;;;;;;;;;;18.12;86.76;100144.78;12216085;19;19911;-80
2022/08/31 07:27:54;;;;;;;;;;;;;;;18.15;88.42;100142.25;12192609;19;19911;-83
2022/08/31 07:31:58;;;;;;;;;;;;;;;18.18;88.40;100138.88;12215026;19;20264;-81
2022/08/31 07:35:59;;;;;;;;;;;;;;;18.24;87.81;100147.19;12196893;19;19930;-84
2022/08/31 07:44:40;;;;;;;;;;;;;;;18.32;88.70;100146.53;12226993;19;19910;-82
2022/08/31 07:48:42;;;;;;;;;;;;;;;18.30;94.51;100152.44;12205785;19;20608;-80
2022/08/31 07:52:59;;;;;;;;;;;;;;;18.34;94.66;100163.81;12226112;19;19925;-81
2022/08/31 07:57:17;;;;;;;;;;;;;;;18.37;94.16;100155.69;12192348;19;19920;-81
2022/08/31 08:01:19;;;;;;;;;;;;;;;18.43;93.98;100162.91;12228131;19;19930;-81
2022/08/31 08:05:24;;;;;;;;;;;;;;;18.48;93.56;100159.25;12222284;19;19951;-81
2022/08/31 08:09:47;;;;;;;;;;;;;;;18.48;98.63;100164.00;12205510;19;19917;-81
2022/08/31 08:14:10;;;;;;;;;;;;;;;18.49;97.84;100169.25;12221722;19;19920;-81
2022/08/31 08:18:24;;;;;;;;;;;;;;;18.55;96.79;100182.03;12195029;19;20798;-82
2022/08/31 08:22:30;;;;;;;;;;;;;;;18.61;97.71;100178.06;12224385;19;19925;-82
2022/08/31 08:27:04;;;;;;;;;;;;;;;18.71;97.63;100184.66;12203448;19;19934;-82
2022/08/31 08:31:18;;;;;;;;;;;;;;;18.76;98.97;100181.88;12222503;19;20294;-81
2022/08/31 08:35:21;;;;;;;;;;;;;;;18.82;98.26;100183.47;12223467;19;19911;-82
2022/08/31 08:39:23;;;;;;;;;;;;;;;18.85;98.64;100183.72;12201165;19;20014;-81
2022/08/31 08:43:46;;;;;;;;;;;;;;;18.90;100.00;100191.22;12224871;19;19991;-81
2022/08/31 08:47:59;;;;;;;;;;;;;;;19.01;100.00;100189.16;12209710;19;19910;-81
2022/08/31 08:52:03;;;;;;;;;;;;;;;19.05;98.59;100193.81;12224097;19;20353;-82
2022/08/31 08:56:05;;;;;;;;;;;;;;;19.13;98.43;100192.34;12236112;19;19943;-82
2022/08/31 09:00:27;;;;;;;;;;;;;;;19.19;98.86;100196.75;12256637;19;19924;-80
2022/08/31 09:04:32;;;;;;;;;;;;;;;19.31;98.80;100201.91;12255699;19;19907;-82
2022/08/31 09:08:46;;;;;;;;;;;;;;;19.35;99.56;100205.75;12229463;19;19907;-82
2022/08/31 09:13:11;;;;;;;;;;;;;;;19.42;98.32;100202.59;12213851;19;20357;-81
2022/08/31 09:17:25;;;;;;;;;;;;;;;19.39;97.62;100212.41;12224882;19;19928;-82
2022/08/31 09:21:30;;;;;;;;;;;;;;;19.47;98.15;100206.16;12199096;19;20025;-82
2022/08/31 09:25:52;;;;;;;;;;;;;;;19.51;98.12;100196.06;12222357;19;19932;-82
2022/08/31 09:30:31;;;;;;;;;;;;;;;19.53;98.07;100193.78;12202640;19;19930;-82
2022/08/31 09:34:37;;;;;;;;;;;;;;;19.70;97.55;100192.47;12218779;19;19911;-81
2022/08/31 09:38:40;;;;;;;;;;;;;;;19.71;97.66;100185.75;12227236;19;20238;-81
2022/08/31 09:42:43;;;;;;;;;;;;;;;19.89;95.44;100187.69;12200712;19;19907;-80
2022/08/31 09:46:49;;;;;;;;;;;;;;;20.08;95.29;100189.66;12222337;19;19918;-81
2022/08/31 09:50:59;;;;;;;;;;;;;;;20.33;93.61;100186.44;12225779;19;19914;-81
2022/08/31 09:55:13;;;;;;;;;;;;;;;20.35;92.61;100186.97;12200566;19;20070;-81
2022/08/31 09:59:27;;;;;;;;;;;;;;;20.63;91.78;100179.50;12217678;19;19915;-81
2022/08/31 10:03:29;;;;;;;;;;;;;;;20.96;89.08;100181.41;12197832;19;20028;-80
2022/08/31 10:07:36;;;;;;;;;;;;;;;21.38;87.77;100183.09;12220324;19;19958;-80
2022/08/31 10:11:40;;;;;;;;;;;;;;;21.75;85.88;100167.16;12218785;19;19910;-81
2022/08/31 10:15:47;;;;;;;;;;;;;;;22.13;84.94;100164.84;12195919;19;19906;-80
2022/08/31 10:19:56;;;;;;;;;;;;;;;22.51;83.25;100164.44;12215567;19;19918;-80
2022/08/31 10:24:19;;;;;;;;;;;;;;;22.72;80.09;100165.53;12218414;19;20001;-80
2022/08/31 10:28:35;;;;;;;;;;;;;;;22.95;77.29;100163.53;12194396;19;19914;-79
2022/08/31 10:32:52;;;;;;;;;;;;;;;22.92;72.76;100157.72;12217510;19;19910;-81
2022/08/31 10:36:58;;;;;;;;;;;;;;;22.94;75.15;100170.31;12195537;19;20020;-80
2022/08/31 10:41:09;;;;;;;;;;;;;;;23.08;75.33;100166.56;12219652;19;19906;-79
2022/08/31 10:45:14;;;;;;;;;;;;;;;23.45;75.69;100179.25;12197485;19;19914;-81
2022/08/31 10:49:20;;;;;;;;;;;;;;;23.57;74.97;100181.44;12218546;19;19911;-79
2022/08/31 10:53:26;;;;;;;;;;;;;;;23.60;73.61;100173.16;12216879;19;19947;-80
2022/08/31 10:57:31;;;;;;;;;;;;;;;23.53;74.00;100172.84;12188584;19;19978;-80
2022/08/31 11:01:45;;;;;;;;;;;;;;;23.62;73.35;100181.28;12209944;19;19982;-79
2022/08/31 11:05:56;;;;;;;;;;;;;;;23.69;71.65;100169.53;12214157;19;19915;-79
2022/08/31 11:10:04;;;;;;;;;;;;;;;23.81;69.37;100172.56;12196930;19;19923;-80
2022/08/31 11:14:13;;;;;;;;;;;;;;;23.64;66.68;100178.94;12221585;19;19907;-79
2022/08/31 11:18:38;;;;;;;;;;;;;;;23.68;67.47;100174.34;12195421;19;19914;-79
2022/08/31 11:22:49;;;;;;;;;;;;;;;23.75;65.83;100185.13;12217002;19;19970;-83
2022/08/31 11:26:57;;;;;;;;;;;;;;;23.81;64.68;100176.19;12224259;19;19915;-80
2022/08/31 11:31:00;;;;;;;;;;;;;;;24.11;64.64;100170.72;12202754;19;19918;-81
2022/08/31 11:35:07;;;;;;;;;;;;;;;24.36;63.76;100171.84;12222484;19;20320;-79
2022/08/31 11:39:08;;;;;;;;;;;;;;;24.71;61.44;100169.00;12199619;19;19923;-78
2022/08/31 11:43:28;;;;;;;;;;;;;;;25.46;61.28;100164.56;12218183;19;19966;-79
2022/08/31 11:47:37;;;;;;;;;;;;;;;26.17;55.52;100156.38;12218775;19;19911;-80
2022/08/31 11:51:41;;;;;;;;;;;;;;;26.76;52.81;100156.13;12197674;19;19921;-78
2022/08/31 11:55:45;;;;;;;;;;;;;;;26.26;53.27;100154.31;12218048;19;19931;-78
2022/08/31 11:59:48;;;;;;;;;;;;;;;26.58;51.84;100142.19;12222864;19;19927;-81
2022/08/31 12:03:51;;;;;;;;;;;;;;;26.10;51.16;100148.47;12189434;19;19960;-80
2022/08/31 12:07:53;;;;;;;;;;;;;;;26.57;52.49;100140.56;12221261;19;19950;-80
2022/08/31 12:11:55;;;;;;;;;;;;;;;26.94;50.25;100143.44;12220706;19;19914;-81
2022/08/31 12:16:03;;;;;;;;;;;;;;;27.08;48.81;100143.09;12196679;19;20294;-81
2022/08/31 12:20:12;;;;;;;;;;;;;;;27.10;49.61;100145.56;12222635;19;20030;-78
2022/08/31 12:24:26;;;;;;;;;;;;;;;26.73;47.91;100146.34;12188987;19;20397;-80
2022/08/31 12:28:47;;;;;;;;;;;;;;;26.87;48.81;100143.19;12219589;19;19915;-81
2022/08/31 12:33:08;;;;;;;;;;;;;;;27.03;47.71;100143.31;12218980;19;19974;-81
2022/08/31 12:37:17;;;;;;;;;;;;;;;27.19;48.10;100146.31;12195086;19;20286;-80
2022/08/31 12:41:19;;;;;;;;;;;;;;;27.57;48.02;100140.25;12217895;19;20313;-82
2022/08/31 12:45:31;;;;;;;;;;;;;;;28.30;45.87;100135.56;12196385;19;19922;-82
2022/08/31 12:50:02;;;;;;;;;;;;;;;28.72;43.79;100137.97;12215710;19;19927;-81
2022/08/31 12:54:22;;;;;;;;;;;;;;;28.69;43.07;100136.66;12193793;19;20014;-79
2022/08/31 12:58:31;;;;;;;;;;;;;;;29.11;42.47;100124.81;12217072;19;19907;-81
2022/08/31 13:02:36;;;;;;;;;;;;;;;29.53;41.49;100125.00;12212051;19;19936;-80
2022/08/31 13:06:44;;;;;;;;;;;;;;;29.83;39.57;100121.63;12198231;19;19939;-81
2022/08/31 13:10:45;;;;;;;;;;;;;;;30.35;39.01;100113.81;12218028;19;19982;-81
2022/08/31 13:14:47;;;;;;;;;;;;;;;30.12;38.19;100102.34;12220448;19;19915;-81
2022/08/31 13:18:56;;;;;;;;;;;;;;;30.06;37.64;100090.47;12201640;19;19907;-81
2022/08/31 13:23:01;;;;;;;;;;;;;;;30.87;37.27;100093.22;12222164;19;20354;-79
2022/08/31 13:27:04;;;;;;;;;;;;;;;30.57;37.27;100083.72;12212175;19;19922;-81
2022/08/31 13:31:07;;;;;;;;;;;;;;;30.48;37.23;100074.63;12216378;19;19959;-81
2022/08/31 13:35:12;;;;;;;;;;;;;;;30.19;37.94;100074.91;12214857;19;19915;-80
2022/08/31 13:39:18;;;;;;;;;;;;;;;29.61;37.37;100068.38;12198267;19;19907;-80
2022/08/31 13:43:25;;;;;;;;;;;;;;;28.83;37.80;100069.00;12220936;19;20020;-80
2022/08/31 13:47:29;;;;;;;;;;;;;;;27.81;39.88;100074.31;12226456;19;19921;-81
2022/08/31 13:51:33;;;;;;;;;;;;;;;27.07;40.45;100067.91;12201870;19;19907;-80
2022/08/31 13:55:41;;;;;;;;;;;;;;;26.52;41.54;100063.66;12221025;19;19906;-81
2022/08/31 13:59:42;;;;;;;;;;;;;;;26.14;42.03;100065.53;12223456;19;19906;-81
2022/08/31 14:03:52;;;;;;;;;;;;;;;25.70;42.13;100061.47;12195861;19;19915;-80
2022/08/31 14:07:55;;;;;;;;;;;;;;;25.63;42.29;100067.66;12221051;19;19999;-78
2022/08/31 14:12:04;;;;;;;;;;;;;;;25.61;41.90;100057.88;12220347;19;19967;-80
2022/08/31 14:16:08;;;;;;;;;;;;;;;25.49;42.59;100060.63;12199273;19;19996;-80
2022/08/31 14:20:32;;;;;;;;;;;;;;;25.45;42.61;100061.31;12222718;19;19930;-80
2022/08/31 14:24:34;;;;;;;;;;;;;;;25.55;42.20;100062.94;12198585;19;19911;-80
2022/08/31 14:28:41;;;;;;;;;;;;;;;25.69;41.72;100059.81;12222954;19;20006;-80
2022/08/31 14:32:44;;;;;;;;;;;;;;;25.67;41.83;100053.66;12217959;19;19959;-80
2022/08/31 14:36:54;;;;;;;;;;;;;;;25.53;41.44;100059.63;12187940;19;19926;-79
2022/08/31 14:40:55;;;;;;;;;;;;;;;25.30;42.38;100052.66;12211607;19;19931;-81
2022/08/31 14:45:02;;;;;;;;;;;;;;;25.12;42.42;100047.09;12211362;19;20311;-79
2022/08/31 14:49:05;;;;;;;;;;;;;;;25.27;42.33;100039.25;12190075;19;19922;-80
2022/08/31 14:53:10;;;;;;;;;;;;;;;25.26;41.70;100041.25;12212702;19;19946;-80
2022/08/31 14:57:13;;;;;;;;;;;;;;;25.37;41.90;100039.66;12189274;19;20214;-80
2022/08/31 15:01:15;;;;;;;;;;;;;;;25.54;41.67;100037.88;12213203;19;19939;-76
2022/08/31 15:05:22;;;;;;;;;;;;;;;25.58;41.35;100036.84;12264743;19;19911;-76
2022/08/31 15:09:23;;;;;;;;;;;;;;;25.63;41.58;100033.78;12245422;19;19900;-76
2022/08/31 15:13:27;;;;;;;;;;;;;;;25.83;41.12;100040.63;12265492;19;19907;-78
2022/08/31 15:17:34;;;;;;;;;;;;;;;25.84;40.56;100030.16;12241846;19;19907;-80
2022/08/31 15:21:39;;;;;;;;;;;;;;;25.79;40.58;100033.13;12219584;19;19907;-77
2022/08/31 15:25:45;;;;;;;;;;;;;;;25.83;40.91;100037.78;12256562;19;19911;-77
2022/08/31 15:29:48;;;;;;;;;;;;;;;25.84;39.88;100030.97;12227821;19;19923;-79
2022/08/31 15:33:51;;;;;;;;;;;;;;;25.83;40.31;100029.31;12191325;19;19911;-82
2022/08/31 15:37:55;;;;;;;;;;;;;;;25.75;40.01;100032.19;12213969;19;19934;-82
2022/08/31 15:41:57;;;;;;;;;;;;;;;25.92;40.11;100015.13;12207590;19;20328;-79
2022/08/31 15:46:00;;;;;;;;;;;;;;;26.22;39.63;100012.97;12179988;19;19915;-80
2022/08/31 15:50:02;;;;;;;;;;;;;;;26.22;39.31;100018.59;12201951;19;19915;-80
2022/08/31 15:54:07;;;;;;;;;;;;;;;26.13;39.91;100012.22;12179057;19;19917;-81
2022/08/31 15:58:24;;;;;;;;;;;;;;;26.00;39.68;100010.53;12209109;19;19914;-80
2022/08/31 16:02:26;;;;;;;;;;;;;;;26.00;39.94;100007.72;12221160;19;19911;-79
2022/08/31 16:06:31;;;;;;;;;;;;;;;26.07;39.57;100007.97;12192427;19;19952;-80
2022/08/31 16:10:35;;;;;;;;;;;;;;;26.29;39.51;100001.06;12212597;19;19919;-80
2022/08/31 16:14:40;;;;;;;;;;;;;;;26.41;38.96;99995.44;12211632;19;19907;-80
2022/08/31 16:18:42;;;;;;;;;;;;;;;26.31;39.01;99990.25;12188744;19;19910;-80
2022/08/31 16:22:44;;;;;;;;;;;;;;;26.40;39.29;99987.31;12210234;19;19941;-80
2022/08/31 16:26:49;;;;;;;;;;;;;;;26.30;38.66;99975.31;12205127;19;20549;-81
2022/08/31 16:30:51;;;;;;;;;;;;;;;26.23;38.49;99977.88;12186762;19;19911;-79
2022/08/31 16:34:53;;;;;;;;;;;;;;;26.09;38.96;99985.88;12207166;19;19966;-80
2022/08/31 16:38:55;;;;;;;;;;;;;;;25.97;38.64;99980.19;12209024;19;19922;-80
2022/08/31 16:42:57;;;;;;;;;;;;;;;25.81;39.42;99982.81;12188205;19;19915;-80
2022/08/31 16:46:59;;;;;;;;;;;;;;;25.59;39.38;99984.06;12207834;19;20592;-81
2022/08/31 16:51:01;;;;;;;;;;;;;;;25.41;39.71;99977.75;12208875;19;20408;-80
2022/08/31 16:55:03;;;;;;;;;;;;;;;25.16;39.77;99982.41;12184319;19;19915;-80
2022/08/31 16:59:06;;;;;;;;;;;;;;;24.94;39.76;99978.72;12203052;19;19923;-81
2022/08/31 17:03:07;;;;;;;;;;;;;;;24.78;40.09;99986.16;12183910;19;19939;-78
2022/08/31 17:07:10;;;;;;;;;;;;;;;24.65;40.64;99981.56;12205432;19;19910;-79
2022/08/31 17:11:21;;;;;;;;;;;;;;;24.46;41.55;99977.19;12206645;19;20631;-81
2022/08/31 17:15:25;;;;;;;;;;;;;;;24.30;41.22;99976.91;12184987;19;19922;-80
2022/08/31 17:19:28;;;;;;;;;;;;;;;24.16;41.66;99990.38;12216789;19;19915;-79
2022/08/31 17:23:29;;;;;;;;;;;;;;;24.09;41.57;99992.88;12216412;19;20266;-79
2022/08/31 17:27:32;;;;;;;;;;;;;;;23.98;41.81;99992.44;12196980;19;19919;-79
2022/08/31 17:31:35;;;;;;;;;;;;;;;23.86;41.87;99989.50;12213379;19;20675;-80
2022/08/31 17:35:40;;;;;;;;;;;;;;;23.73;41.98;99994.13;12211266;19;19915;-81
2022/08/31 17:39:42;;;;;;;;;;;;;;;23.58;42.14;99995.44;12186976;19;19923;-80
2022/08/31 17:43:44;;;;;;;;;;;;;;;23.40;42.52;100005.06;12216144;19;19910;-80
2022/08/31 17:47:46;;;;;;;;;;;;;;;23.26;42.76;100010.00;12214917;19;19933;-80
2022/08/31 17:51:49;;;;;;;;;;;;;;;23.04;42.93;100011.81;12194606;19;19943;-80
2022/08/31 17:55:53;;;;;;;;;;;;;;;22.86;43.03;100013.72;12214057;19;19911;-79
2022/08/31 17:59:55;;;;;;;;;;;;;;;22.61;44.15;100020.94;12216221;19;19929;-80
2022/08/31 18:03:58;;;;;;;;;;;;;;;22.37;44.09;100026.13;12191359;19;19914;-78
2022/08/31 18:07:59;;;;;;;;;;;;;;;22.13;46.08;100029.28;12209840;19;19915;-80
2022/08/31 18:12:01;;;;;;;;;;;;;;;21.90;46.04;100039.72;12211195;19;20380;-78
2022/08/31 18:16:05;;;;;;;;;;;;;;;21.68;46.34;100037.72;12187563;19;20384;-77
2022/08/31 18:20:07;;;;;;;;;;;;;;;21.50;46.33;100046.00;12208243;19;19918;-80
2022/08/31 18:24:09;;;;;;;;;;;;;;;21.32;47.22;100052.56;12179669;19;19911;-81
2022/08/31 18:28:16;;;;;;;;;;;;;;;21.13;48.02;100049.94;12192350;19;20062;-79
2022/08/31 18:32:18;;;;;;;;;;;;;;;20.93;48.56;100060.44;12199673;19;20345;-78
2022/08/31 18:36:22;;;;;;;;;;;;;;;20.74;49.22;100056.94;12181140;19;19932;-79
2022/08/31 18:49:06;;;;;;;;;;;;;;;20.19;50.52;100073.63;12183919;19;19986;-80
2022/08/31 18:53:14;;;;;;;;;;;;;;;20.10;50.30;100072.69;12217006;19;19923;-79
2022/08/31 18:57:30;;;;;;;;;;;;;;;20.04;50.71;100077.53;12195011;19;19999;-81
2022/08/31 19:01:32;;;;;;;;;;;;;;;19.97;51.17;100075.16;12219525;19;19907;-80
2022/08/31 19:05:38;;;;;;;;;;;;;;;19.90;51.11;100087.84;12217700;19;19911;-80
2022/08/31 19:09:40;;;;;;;;;;;;;;;19.79;51.76;100076.84;12197682;19;19915;-80
2022/08/31 19:13:45;;;;;;;;;;;;;;;19.72;52.29;100087.59;12215412;19;20312;-79
2022/08/31 19:17:48;;;;;;;;;;;;;;;19.63;52.55;100082.94;12216175;19;19924;-82
2022/08/31 19:21:49;;;;;;;;;;;;;;;19.54;53.47;100086.44;12196166;19;19907;-82
2022/08/31 19:25:51;;;;;;;;;;;;;;;19.55;53.76;100088.09;12212986;19;19996;-82
2022/08/31 19:29:55;;;;;;;;;;;;;;;19.50;54.03;100093.75;12211255;19;19952;-80
2022/08/31 19:33:57;;;;;;;;;;;;;;;19.41;54.25;100090.00;12202668;19;20427;-80
2022/08/31 19:37:59;;;;;;;;;;;;;;;19.32;56.35;100091.78;12226649;19;19958;-81
2022/08/31 19:42:02;;;;;;;;;;;;;;;19.24;55.20;100090.50;12235269;19;19915;-80
2022/08/31 19:46:09;;;;;;;;;;;;;;;19.24;55.53;100089.66;12207262;19;20302;-80
2022/08/31 19:50:11;;;;;;;;;;;;;;;19.17;56.88;100090.06;12230231;19;19907;-81
2022/08/31 19:54:14;;;;;;;;;;;;;;;19.11;56.82;100083.69;12205051;19;19931;-81
2022/08/31 19:58:18;;;;;;;;;;;;;;;19.06;56.36;100083.75;12225540;19;20551;-81
2022/08/31 20:02:21;;;;;;;;;;;;;;;19.08;57.23;100078.72;12222736;19;19915;-81
2022/08/31 20:06:26;;;;;;;;;;;;;;;19.04;57.78;100080.47;12201354;19;19931;-78
2022/08/31 20:10:28;;;;;;;;;;;;;;;18.96;57.87;100080.28;12225313;19;20334;-81
2022/08/31 20:14:30;;;;;;;;;;;;;;;18.92;58.60;100082.84;12220502;19;20449;-81
2022/08/31 20:18:36;;;;;;;;;;;;;;;18.92;57.93;100084.78;12198984;19;19933;-80
2022/08/31 20:22:39;;;;;;;;;;;;;;;18.87;59.04;100082.91;12215581;19;19915;-81
2022/08/31 20:26:42;;;;;;;;;;;;;;;18.83;59.01;100093.03;12221442;19;19915;-81
2022/08/31 20:30:57;;;;;;;;;;;;;;;18.90;59.32;100087.91;12202788;19;19914;-80
2022/08/31 20:35:00;;;;;;;;;;;;;;;18.83;58.88;100090.22;12222597;19;19919;-81
2022/08/31 20:39:06;;;;;;;;;;;;;;;18.77;58.63;100099.78;12225205;19;19918;-82
2022/08/31 20:43:10;;;;;;;;;;;;;;;18.71;59.41;100090.63;12201857;19;19929;-80
2022/08/31 20:51:32;;;;;;;;;;;;;;;18.59;59.80;100082.66;12203960;19;19919;-80
2022/08/31 20:55:41;;;;;;;;;;;;;;;18.49;60.35;100085.56;12224583;19;20212;-81
2022/08/31 20:59:43;;;;;;;;;;;;;;;18.43;60.50;100092.31;12223526;19;19923;-81
2022/08/31 21:03:45;;;;;;;;;;;;;;;18.40;60.67;100095.69;12192911;19;19938;-82
2022/08/31 21:07:46;;;;;;;;;;;;;;;18.39;60.76;100094.03;12221940;19;20021;-81
2022/08/31 21:11:48;;;;;;;;;;;;;;;18.36;60.74;100100.22;12221477;19;19915;-83
2022/08/31 21:15:49;;;;;;;;;;;;;;;18.32;60.74;100099.97;12200422;19;19978;-80